Time;durP1;ratioP1;P1;durP2;ratioP2;P2;SDS_P1;SDS_P2;PMS_P1;PMS_P2;Temp;Humidity;BMP_temperature;BMP_pressure;BME280_temperature;BME280_humidity;BME280_pressure;Samples;Min_cycle;Max_cycle;Signal;HPM_P1;HPM_P2
2023/12/22 00:02:20;;;;;;;;;;;4.60;93.60;;;;;;6264171;22;20317;-77
2023/12/22 00:04:46;;;;;;;;;;;4.70;89.60;;;;;;6264243;22;20256;-76
2023/12/22 00:07:13;;;;;;;;;;;4.70;89.30;;;;;;6263907;22;19989;-77
2023/12/22 00:09:40;;;;;;;;;;;4.70;89.00;;;;;;6265470;22;19919;-77
2023/12/22 00:12:07;;;;;;;;;;;4.70;89.80;;;;;;6261055;22;19923;-77
2023/12/22 00:14:34;;;;;;;;;;;4.70;90.70;;;;;;6264167;22;19947;-77
2023/12/22 00:17:01;;;;;;;;;;;4.70;87.50;;;;;;6264443;22;19919;-78
2023/12/22 00:19:27;;;;;;;;;;;4.70;89.70;;;;;;6265208;22;19919;-77
2023/12/22 00:21:54;;;;;;;;;;;4.70;89.70;;;;;;6264754;22;20312;-77
2023/12/22 00:24:21;;;;;;;;;;;4.70;92.30;;;;;;6264031;22;20083;-78
2023/12/22 00:26:48;;;;;;;;;;;4.70;91.30;;;;;;6264311;22;19919;-77
2023/12/22 00:29:15;;;;;;;;;;;4.70;92.90;;;;;;6263882;22;19926;-77
2023/12/22 00:31:45;;;;;;;;;;;4.70;96.20;;;;;;6262488;22;19930;-77
2023/12/22 00:34:12;;;;;;;;;;;4.60;94.90;;;;;;6264626;22;19919;-77
2023/12/22 00:36:39;;;;;;;;;;;4.70;96.10;;;;;;6262329;22;20033;-77
2023/12/22 00:39:05;;;;;;;;;;;4.60;94.30;;;;;;6263901;22;19919;-77
2023/12/22 00:41:32;;;;;;;;;;;4.60;94.60;;;;;;6264330;22;19919;-76
2023/12/22 00:43:59;;;;;;;;;;;4.60;94.80;;;;;;6262774;22;20052;-75
2023/12/22 00:46:26;;;;;;;;;;;4.50;90.20;;;;;;6263712;22;20411;-76
2023/12/22 00:48:52;;;;;;;;;;;4.50;86.10;;;;;;6262935;22;19920;-76
2023/12/22 00:51:19;;;;;;;;;;;4.40;84.70;;;;;;6263210;22;19973;-76
2023/12/22 00:53:46;;;;;;;;;;;4.40;82.20;;;;;;6261804;22;19923;-77
2023/12/22 00:56:13;;;;;;;;;;;4.30;84.00;;;;;;6264689;22;19919;-76
2023/12/22 00:58:40;;;;;;;;;;;4.30;84.90;;;;;;6263961;22;20658;-76
2023/12/22 01:01:07;;;;;;;;;;;4.20;86.60;;;;;;6263845;22;19919;-77
2023/12/22 01:03:34;;;;;;;;;;;4.10;92.00;;;;;;6261361;22;19950;-76
2023/12/22 01:06:01;;;;;;;;;;;4.10;85.00;;;;;;6261449;22;20027;-76
2023/12/22 01:08:28;;;;;;;;;;;4.10;85.90;;;;;;6261184;22;19919;-76
2023/12/22 01:10:55;;;;;;;;;;;4.10;85.60;;;;;;6261798;22;19923;-76
2023/12/22 01:13:22;;;;;;;;;;;4.10;85.50;;;;;;6264494;22;19919;-76
2023/12/22 01:15:49;;;;;;;;;;;4.10;87.10;;;;;;6261399;22;19927;-76
2023/12/22 01:18:15;;;;;;;;;;;4.00;88.80;;;;;;6264353;22;19923;-76
2023/12/22 01:20:42;;;;;;;;;;;4.00;88.20;;;;;;6263261;22;20581;-76
2023/12/22 01:23:09;;;;;;;;;;;4.00;88.10;;;;;;6262976;22;19968;-77
2023/12/22 01:25:36;;;;;;;;;;;4.00;88.60;;;;;;6263577;22;19919;-78
2023/12/22 01:28:02;;;;;;;;;;;4.00;83.50;;;;;;6264044;22;19966;-76
2023/12/22 01:30:32;;;;;;;;;;;4.00;87.60;;;;;;6263225;22;20006;-76
2023/12/22 01:32:58;;;;;;;;;;;3.90;84.40;;;;;;6261786;22;19919;-76
2023/12/22 01:35:25;;;;;;;;;;;3.90;85.30;;;;;;6261945;22;19919;-76
2023/12/22 01:37:52;;;;;;;;;;;3.90;88.40;;;;;;6263643;22;19922;-76
2023/12/22 01:40:19;;;;;;;;;;;3.90;88.60;;;;;;6263042;22;19923;-76
2023/12/22 01:42:47;;;;;;;;;;;3.90;87.20;;;;;;6263026;22;20025;-76
2023/12/22 01:45:14;;;;;;;;;;;3.90;87.80;;;;;;6263460;22;19951;-77
2023/12/22 01:47:41;;;;;;;;;;;3.80;87.50;;;;;;6260920;22;19923;-76
2023/12/22 01:50:10;;;;;;;;;;;3.80;85.50;;;;;;6262167;22;19918;-76
2023/12/22 01:52:39;;;;;;;;;;;3.80;83.20;;;;;;6264064;22;20554;-76
2023/12/22 01:55:06;;;;;;;;;;;3.90;86.00;;;;;;6262787;22;19918;-76
2023/12/22 01:57:34;;;;;;;;;;;3.80;84.50;;;;;;6263627;22;19919;-76
2023/12/22 02:00:02;;;;;;;;;;;3.80;84.20;;;;;;6263148;22;19977;-77
2023/12/22 02:02:30;;;;;;;;;;;3.80;83.80;;;;;;6262506;22;19919;-75
2023/12/22 02:04:58;;;;;;;;;;;3.80;84.90;;;;;;6262223;22;19951;-76
2023/12/22 02:07:24;;;;;;;;;;;3.80;87.60;;;;;;6261956;22;19926;-75
2023/12/22 02:09:51;;;;;;;;;;;3.80;89.50;;;;;;6262965;22;19923;-76
2023/12/22 02:12:18;;;;;;;;;;;3.70;89.80;;;;;;6261676;22;19923;-76
2023/12/22 02:14:45;;;;;;;;;;;3.70;91.70;;;;;;6263163;22;19989;-75
2023/12/22 02:17:15;;;;;;;;;;;3.70;92.20;;;;;;6261480;22;19923;-76
2023/12/22 02:19:43;;;;;;;;;;;3.70;95.40;;;;;;6264056;22;20678;-76
2023/12/22 02:22:11;;;;;;;;;;;3.60;97.80;;;;;;6260960;22;19922;-75
2023/12/22 02:24:38;;;;;;;;;;;3.50;99.40;;;;;;6262694;22;20005;-76
2023/12/22 02:27:08;;;;;;;;;;;3.50;100.00;;;;;;6264063;22;19926;-76
2023/12/22 02:29:40;;;;;;;;;;;3.50;100.00;;;;;;6263411;22;19919;-75
2023/12/22 02:32:08;;;;;;;;;;;3.50;100.00;;;;;;6261810;22;19944;-76
2023/12/22 02:34:37;;;;;;;;;;;3.60;100.00;;;;;;6263505;22;20351;-76
2023/12/22 02:37:08;;;;;;;;;;;3.60;100.00;;;;;;6263388;22;19919;-76
2023/12/22 02:39:35;;;;;;;;;;;3.60;100.00;;;;;;6263514;22;19919;-76
2023/12/22 02:42:03;;;;;;;;;;;3.60;100.00;;;;;;6261141;22;20324;-76
2023/12/22 02:44:30;;;;;;;;;;;3.60;100.00;;;;;;6262224;22;19919;-76
2023/12/22 02:46:57;;;;;;;;;;;3.60;100.00;;;;;;6263419;22;19919;-76
2023/12/22 02:49:24;;;;;;;;;;;3.50;100.00;;;;;;6263685;22;19926;-76
2023/12/22 02:51:51;;;;;;;;;;;3.50;100.00;;;;;;6263147;22;19950;-76
2023/12/22 02:54:17;;;;;;;;;;;3.50;100.00;;;;;;6262169;22;19968;-76
2023/12/22 02:56:47;;;;;;;;;;;3.50;100.00;;;;;;6262634;22;19919;-75
2023/12/22 02:59:14;;;;;;;;;;;3.60;100.00;;;;;;6262281;22;20392;-75
2023/12/22 03:01:41;;;;;;;;;;;3.50;100.00;;;;;;6260570;22;20022;-75
2023/12/22 03:04:08;;;;;;;;;;;3.50;100.00;;;;;;6259530;22;19926;-75
2023/12/22 03:06:34;;;;;;;;;;;3.60;100.00;;;;;;6261533;22;19973;-75
2023/12/22 03:09:02;;;;;;;;;;;3.50;100.00;;;;;;6262807;22;19923;-76
2023/12/22 03:11:29;;;;;;;;;;;3.50;100.00;;;;;;6263991;22;20350;-76
2023/12/22 03:13:55;;;;;;;;;;;3.50;100.00;;;;;;6263280;22;19930;-76
2023/12/22 03:16:22;;;;;;;;;;;3.60;100.00;;;;;;6261756;22;20634;-76
2023/12/22 03:18:49;;;;;;;;;;;3.70;100.00;;;;;;6264140;22;19919;-75
2023/12/22 03:21:17;;;;;;;;;;;3.70;100.00;;;;;;6265423;22;20021;-76
2023/12/22 03:23:44;;;;;;;;;;;3.70;100.00;;;;;;6263525;22;19973;-76
2023/12/22 03:26:11;;;;;;;;;;;3.80;100.00;;;;;;6264400;22;20032;-76
2023/12/22 03:28:38;;;;;;;;;;;3.80;100.00;;;;;;6264815;22;20351;-76
2023/12/22 03:31:06;;;;;;;;;;;3.80;100.00;;;;;;6262886;22;19961;-75
2023/12/22 03:33:33;;;;;;;;;;;3.90;100.00;;;;;;6262961;22;19950;-76
2023/12/22 03:36:00;;;;;;;;;;;3.90;100.00;;;;;;6262804;22;19919;-76
2023/12/22 03:38:27;;;;;;;;;;;3.90;100.00;;;;;;6260914;22;20353;-75
2023/12/22 03:40:53;;;;;;;;;;;3.90;100.00;;;;;;6260520;22;19976;-76
2023/12/22 03:43:20;;;;;;;;;;;3.90;100.00;;;;;;6260705;22;20343;-76
2023/12/22 03:45:47;;;;;;;;;;;3.90;100.00;;;;;;6261770;22;20018;-76
2023/12/22 03:48:14;;;;;;;;;;;3.90;100.00;;;;;;6260701;22;19927;-76
2023/12/22 03:50:41;;;;;;;;;;;3.90;100.00;;;;;;6262328;22;20560;-76
2023/12/22 03:53:07;;;;;;;;;;;3.90;100.00;;;;;;6262035;22;19969;-77
2023/12/22 03:55:34;;;;;;;;;;;3.90;100.00;;;;;;6261343;22;19923;-75
2023/12/22 03:58:02;;;;;;;;;;;3.90;100.00;;;;;;6260917;22;19922;-76
2023/12/22 04:00:29;;;;;;;;;;;3.90;100.00;;;;;;6260149;22;20538;-76
2023/12/22 04:02:55;;;;;;;;;;;3.90;100.00;;;;;;6260476;22;19972;-75
2023/12/22 04:05:24;;;;;;;;;;;3.80;100.00;;;;;;6259582;22;19919;-76
2023/12/22 04:07:51;;;;;;;;;;;3.70;100.00;;;;;;6262116;22;20124;-76
2023/12/22 04:10:18;;;;;;;;;;;3.70;100.00;;;;;;6261965;22;19945;-77
2023/12/22 04:12:45;;;;;;;;;;;3.60;100.00;;;;;;6263844;22;19919;-76
2023/12/22 04:15:12;;;;;;;;;;;3.50;100.00;;;;;;6262737;22;19996;-77
2023/12/22 04:17:39;;;;;;;;;;;3.20;100.00;;;;;;6262024;22;19927;-77
2023/12/22 04:20:06;;;;;;;;;;;2.90;100.00;;;;;;6261499;22;19915;-76
2023/12/22 04:22:33;;;;;;;;;;;2.60;100.00;;;;;;6262224;22;20006;-76
2023/12/22 04:25:00;;;;;;;;;;;2.30;100.00;;;;;;6260882;22;20861;-76
2023/12/22 04:27:27;;;;;;;;;;;2.20;100.00;;;;;;6263685;22;19953;-76
2023/12/22 04:29:54;;;;;;;;;;;2.10;100.00;;;;;;6262197;22;20662;-77
2023/12/22 04:32:21;;;;;;;;;;;2.00;100.00;;;;;;6261276;22;19923;-76
2023/12/22 04:34:48;;;;;;;;;;;1.90;100.00;;;;;;6262370;22;20392;-77
2023/12/22 04:37:14;;;;;;;;;;;1.90;100.00;;;;;;6263116;22;20007;-76
2023/12/22 04:39:41;;;;;;;;;;;2.00;100.00;;;;;;6262833;22;19930;-77
2023/12/22 04:42:08;;;;;;;;;;;2.00;100.00;;;;;;6263102;22;19946;-77
2023/12/22 04:44:35;;;;;;;;;;;2.00;100.00;;;;;;6260645;22;19929;-77
2023/12/22 04:47:02;;;;;;;;;;;2.00;100.00;;;;;;6263373;22;19927;-77
2023/12/22 04:49:28;;;;;;;;;;;2.00;100.00;;;;;;6263962;22;19919;-77
2023/12/22 04:51:55;;;;;;;;;;;2.10;100.00;;;;;;6263449;22;20032;-77
2023/12/22 04:54:26;;;;;;;;;;;2.10;100.00;;;;;;6263363;22;19925;-77
2023/12/22 04:56:52;;;;;;;;;;;2.20;100.00;;;;;;6263807;22;20669;-77
2023/12/22 04:59:19;;;;;;;;;;;2.20;100.00;;;;;;6264607;22;19958;-77
2023/12/22 05:01:46;;;;;;;;;;;2.30;100.00;;;;;;6264823;22;19919;-77
2023/12/22 05:04:12;;;;;;;;;;;2.30;100.00;;;;;;6264450;22;19942;-77
2023/12/22 05:06:39;;;;;;;;;;;2.40;100.00;;;;;;6263684;22;19973;-77
2023/12/22 05:09:06;;;;;;;;;;;2.40;100.00;;;;;;6263162;22;19919;-76
2023/12/22 05:11:33;;;;;;;;;;;2.40;100.00;;;;;;6260193;22;20395;-76
2023/12/22 05:14:00;;;;;;;;;;;2.20;100.00;;;;;;6260738;22;19974;-76
2023/12/22 05:16:30;;;;;;;;;;;2.00;100.00;;;;;;6262129;22;20304;-77
2023/12/22 05:19:00;;;;;;;;;;;2.00;100.00;;;;;;6261504;22;20646;-77
2023/12/22 05:21:27;;;;;;;;;;;1.80;100.00;;;;;;6264291;22;20539;-77
2023/12/22 05:23:54;;;;;;;;;;;1.80;100.00;;;;;;6263725;22;19919;-77
2023/12/22 05:26:21;;;;;;;;;;;1.90;100.00;;;;;;6263024;22;19927;-76
2023/12/22 05:28:51;;;;;;;;;;;2.00;100.00;;;;;;6264623;22;20248;-76
2023/12/22 05:31:19;;;;;;;;;;;2.10;100.00;;;;;;6264217;22;19923;-77
2023/12/22 05:33:46;;;;;;;;;;;2.10;100.00;;;;;;6263082;22;19919;-77
2023/12/22 05:36:12;;;;;;;;;;;2.10;100.00;;;;;;6262951;22;19943;-77
2023/12/22 05:38:39;;;;;;;;;;;2.10;100.00;;;;;;6262111;22;19923;-77
2023/12/22 05:41:06;;;;;;;;;;;2.10;100.00;;;;;;6263203;22;19922;-77
2023/12/22 05:43:33;;;;;;;;;;;2.10;100.00;;;;;;6265409;22;19925;-77
2023/12/22 05:46:00;;;;;;;;;;;2.20;100.00;;;;;;6265749;22;19919;-76
2023/12/22 05:48:27;;;;;;;;;;;2.20;100.00;;;;;;6263155;22;19919;-76
2023/12/22 05:50:57;;;;;;;;;;;2.20;100.00;;;;;;6261703;22;19919;-77
2023/12/22 05:53:24;;;;;;;;;;;2.10;100.00;;;;;;6262079;22;19994;-76
2023/12/22 05:55:51;;;;;;;;;;;2.10;100.00;;;;;;6261618;22;20383;-74
2023/12/22 05:58:18;;;;;;;;;;;2.10;100.00;;;;;;6258786;22;20452;-73
2023/12/22 06:00:45;;;;;;;;;;;2.10;100.00;;;;;;6260985;22;19989;-74
2023/12/22 06:03:14;;;;;;;;;;;2.20;100.00;;;;;;6260748;22;19977;-73
2023/12/22 06:05:40;;;;;;;;;;;2.20;100.00;;;;;;6258876;22;19927;-71
2023/12/22 06:08:08;;;;;;;;;;;2.30;100.00;;;;;;6259907;22;19923;-72
2023/12/22 06:10:35;;;;;;;;;;;2.30;100.00;;;;;;6258946;22;20493;-72
2023/12/22 06:13:03;;;;;;;;;;;2.30;100.00;;;;;;6259575;22;20506;-73
2023/12/22 06:15:30;;;;;;;;;;;2.30;100.00;;;;;;6256940;22;19919;-72
2023/12/22 06:17:57;;;;;;;;;;;2.30;100.00;;;;;;6256923;22;19988;-72
2023/12/22 06:20:26;;;;;;;;;;;2.20;100.00;;;;;;6257757;22;19919;-74
2023/12/22 06:22:52;;;;;;;;;;;2.20;100.00;;;;;;6258448;22;20331;-73
2023/12/22 06:25:19;;;;;;;;;;;2.20;100.00;;;;;;6258253;22;19919;-74
2023/12/22 06:27:46;;;;;;;;;;;2.20;100.00;;;;;;6259060;22;19923;-74
2023/12/22 06:30:13;;;;;;;;;;;2.20;100.00;;;;;;6258250;22;19919;-75
2023/12/22 06:32:41;;;;;;;;;;;2.20;100.00;;;;;;6259010;22;19919;-75
2023/12/22 06:35:09;;;;;;;;;;;2.30;100.00;;;;;;6259532;22;20581;-75
2023/12/22 06:37:39;;;;;;;;;;;2.30;100.00;;;;;;6261933;22;19926;-75
2023/12/22 06:40:06;;;;;;;;;;;2.30;100.00;;;;;;6260669;22;20709;-75
2023/12/22 06:42:33;;;;;;;;;;;2.40;100.00;;;;;;6260668;22;19919;-75
2023/12/22 06:45:00;;;;;;;;;;;2.40;100.00;;;;;;6259208;22;20321;-75
2023/12/22 06:47:27;;;;;;;;;;;2.40;100.00;;;;;;6262431;22;19919;-75
2023/12/22 06:49:54;;;;;;;;;;;2.40;100.00;;;;;;6260438;22;20383;-74
2023/12/22 06:52:21;;;;;;;;;;;2.40;100.00;;;;;;6260569;22;20016;-76
2023/12/22 06:54:48;;;;;;;;;;;2.40;100.00;;;;;;6261969;22;19919;-75
2023/12/22 06:57:16;;;;;;;;;;;2.50;100.00;;;;;;6263813;22;20243;-75
2023/12/22 06:59:44;;;;;;;;;;;2.50;100.00;;;;;;6261244;22;20414;-75
2023/12/22 07:02:12;;;;;;;;;;;2.40;100.00;;;;;;6262360;22;19942;-75
2023/12/22 07:05:22;;;;;;;;;;;2.40;100.00;;;;;;6264444;22;20462;-75
2023/12/22 07:07:50;;;;;;;;;;;2.40;100.00;;;;;;6261374;22;20347;-76
2023/12/22 07:10:17;;;;;;;;;;;2.50;100.00;;;;;;6263841;22;19926;-75
2023/12/22 07:12:44;;;;;;;;;;;2.50;100.00;;;;;;6263756;22;20008;-75
2023/12/22 07:15:11;;;;;;;;;;;2.60;100.00;;;;;;6262187;22;19945;-75
2023/12/22 07:17:38;;;;;;;;;;;2.60;100.00;;;;;;6263309;22;19926;-75
2023/12/22 07:20:05;;;;;;;;;;;2.60;100.00;;;;;;6264180;22;19919;-74
2023/12/22 07:22:32;;;;;;;;;;;2.70;100.00;;;;;;6260363;22;20496;-72
2023/12/22 07:24:59;;;;;;;;;;;2.70;100.00;;;;;;6262980;22;19964;-73
2023/12/22 07:27:26;;;;;;;;;;;2.80;100.00;;;;;;6263661;22;19919;-77
2023/12/22 07:29:54;;;;;;;;;;;2.80;100.00;;;;;;6264343;22;19926;-77
2023/12/22 07:32:21;;;;;;;;;;;2.80;100.00;;;;;;6263190;22;19923;-77
2023/12/22 07:34:47;;;;;;;;;;;2.90;100.00;;;;;;6263602;22;19972;-76
2023/12/22 07:37:14;;;;;;;;;;;2.90;100.00;;;;;;6264384;22;19927;-75
2023/12/22 07:39:42;;;;;;;;;;;2.90;100.00;;;;;;6263679;22;19923;-75
2023/12/22 07:42:09;;;;;;;;;;;2.90;100.00;;;;;;6262505;22;20283;-76
2023/12/22 07:44:36;;;;;;;;;;;3.00;100.00;;;;;;6260846;22;20763;-76
2023/12/22 07:47:03;;;;;;;;;;;3.00;100.00;;;;;;6263352;22;19923;-76
2023/12/22 07:49:30;;;;;;;;;;;3.10;100.00;;;;;;6262892;22;19941;-75
2023/12/22 07:51:58;;;;;;;;;;;3.30;100.00;;;;;;6260739;22;19923;-76
2023/12/22 07:54:27;;;;;;;;;;;3.30;100.00;;;;;;6261890;22;19950;-77
2023/12/22 07:56:54;;;;;;;;;;;3.30;100.00;;;;;;6263906;22;19915;-77
2023/12/22 07:59:20;;;;;;;;;;;3.30;100.00;;;;;;6263200;22;19926;-76
2023/12/22 08:01:57;;;;;;;;;;;3.30;100.00;;;;;;6265352;22;20580;-76
2023/12/22 08:04:23;;;;;;;;;;;3.40;100.00;;;;;;6264729;22;20248;-76
2023/12/22 08:06:51;;;;;;;;;;;3.40;100.00;;;;;;6265790;22;19919;-76
2023/12/22 08:09:19;;;;;;;;;;;3.40;100.00;;;;;;6263892;22;19915;-76
2023/12/22 08:11:52;;;;;;;;;;;3.40;100.00;;;;;;6264488;22;19919;-76
2023/12/22 08:14:19;;;;;;;;;;;3.40;100.00;;;;;;6265058;22;20490;-76
2023/12/22 08:16:45;;;;;;;;;;;3.40;100.00;;;;;;6265106;22;19977;-76
2023/12/22 08:19:12;;;;;;;;;;;3.50;100.00;;;;;;6264966;22;19915;-76
2023/12/22 08:21:39;;;;;;;;;;;3.50;100.00;;;;;;6264800;22;19998;-76
2023/12/22 08:24:12;;;;;;;;;;;3.40;100.00;;;;;;6263450;22;20669;-76
2023/12/22 08:26:48;;;;;;;;;;;3.40;100.00;;;;;;6264295;22;19925;-76
2023/12/22 08:29:16;;;;;;;;;;;3.40;100.00;;;;;;6264752;22;20648;-76
2023/12/22 08:31:43;;;;;;;;;;;3.30;100.00;;;;;;6264145;22;19950;-76
2023/12/22 08:34:11;;;;;;;;;;;3.30;100.00;;;;;;6265029;22;20543;-76
2023/12/22 08:36:37;;;;;;;;;;;3.30;100.00;;;;;;6263421;22;19929;-76
2023/12/22 08:39:05;;;;;;;;;;;3.30;100.00;;;;;;6267471;22;20244;-75
2023/12/22 08:41:37;;;;;;;;;;;3.30;100.00;;;;;;6265957;22;19954;-75
2023/12/22 08:44:06;;;;;;;;;;;3.30;100.00;;;;;;6265194;22;19923;-76
2023/12/22 08:46:33;;;;;;;;;;;3.40;100.00;;;;;;6263568;22;19919;-76
2023/12/22 08:49:00;;;;;;;;;;;3.40;100.00;;;;;;6267302;22;20003;-76
2023/12/22 08:51:27;;;;;;;;;;;3.40;100.00;;;;;;6265564;22;19992;-75
2023/12/22 08:53:55;;;;;;;;;;;3.40;100.00;;;;;;6266703;22;19923;-76
2023/12/22 08:56:22;;;;;;;;;;;3.40;100.00;;;;;;6266803;22;19919;-76
2023/12/22 08:58:51;;;;;;;;;;;3.50;100.00;;;;;;6265936;22;20679;-76
2023/12/22 09:01:19;;;;;;;;;;;3.50;100.00;;;;;;6265517;22;19919;-76
2023/12/22 09:03:46;;;;;;;;;;;3.60;100.00;;;;;;6263180;22;19919;-77
2023/12/22 09:06:17;;;;;;;;;;;3.60;100.00;;;;;;6263534;22;19919;-78
2023/12/22 09:08:44;;;;;;;;;;;3.60;100.00;;;;;;6266095;22;19926;-74
2023/12/22 09:11:12;;;;;;;;;;;3.70;100.00;;;;;;6266099;22;20577;-76
2023/12/22 09:13:39;;;;;;;;;;;3.70;100.00;;;;;;6266359;22;19919;-77
2023/12/22 09:16:06;;;;;;;;;;;3.70;100.00;;;;;;6266330;22;19918;-75
2023/12/22 09:18:33;;;;;;;;;;;3.70;100.00;;;;;;6267034;22;19919;-77
2023/12/22 09:21:00;;;;;;;;;;;3.70;100.00;;;;;;6266351;22;20291;-79
2023/12/22 09:23:27;;;;;;;;;;;3.70;100.00;;;;;;6268075;22;19919;-76
2023/12/22 09:25:54;;;;;;;;;;;3.60;100.00;;;;;;6267224;22;19919;-77
2023/12/22 09:28:21;;;;;;;;;;;3.60;100.00;;;;;;6265921;22;19926;-74
2023/12/22 09:30:48;;;;;;;;;;;3.60;100.00;;;;;;6266148;22;19919;-74
2023/12/22 09:33:15;;;;;;;;;;;3.60;100.00;;;;;;6266046;22;19923;-73
2023/12/22 09:35:42;;;;;;;;;;;3.60;100.00;;;;;;6266939;22;19986;-75
2023/12/22 09:38:10;;;;;;;;;;;3.60;100.00;;;;;;6264050;22;19935;-75
2023/12/22 09:40:38;;;;;;;;;;;3.60;100.00;;;;;;6264579;22;19919;-74
2023/12/22 09:43:08;;;;;;;;;;;3.60;100.00;;;;;;6266140;22;19926;-75
2023/12/22 09:45:36;;;;;;;;;;;3.60;100.00;;;;;;6266899;22;20316;-75
2023/12/22 09:48:05;;;;;;;;;;;3.70;100.00;;;;;;6263633;22;19919;-75
2023/12/22 09:50:32;;;;;;;;;;;3.70;100.00;;;;;;6262906;22;20625;-75
2023/12/22 09:53:00;;;;;;;;;;;3.70;100.00;;;;;;6264838;22;20303;-76
2023/12/22 09:55:28;;;;;;;;;;;3.70;100.00;;;;;;6263543;22;20526;-76
2023/12/22 09:57:56;;;;;;;;;;;3.70;100.00;;;;;;6263199;22;19923;-77
2023/12/22 10:00:23;;;;;;;;;;;3.70;100.00;;;;;;6264309;22;19969;-75
2023/12/22 10:02:53;;;;;;;;;;;3.80;100.00;;;;;;6263805;22;19961;-75
2023/12/22 10:05:20;;;;;;;;;;;3.80;100.00;;;;;;6261969;22;19922;-76
2023/12/22 10:07:48;;;;;;;;;;;3.90;100.00;;;;;;6268089;22;19919;-74
2023/12/22 10:10:20;;;;;;;;;;;3.90;100.00;;;;;;6265923;22;19972;-75
2023/12/22 10:12:47;;;;;;;;;;;4.00;100.00;;;;;;6268635;22;19946;-77
2023/12/22 10:15:23;;;;;;;;;;;3.90;100.00;;;;;;6265598;22;19926;-75
2023/12/22 10:17:54;;;;;;;;;;;4.00;100.00;;;;;;6267152;22;19942;-75
2023/12/22 10:20:22;;;;;;;;;;;4.00;100.00;;;;;;6268130;22;19919;-75
2023/12/22 10:22:49;;;;;;;;;;;4.00;100.00;;;;;;6267876;22;19926;-75
2023/12/22 10:25:20;;;;;;;;;;;4.00;100.00;;;;;;6267150;22;19954;-75
2023/12/22 10:27:47;;;;;;;;;;;4.10;100.00;;;;;;6268055;22;19919;-75
2023/12/22 10:30:15;;;;;;;;;;;4.10;100.00;;;;;;6268469;22;20305;-75
2023/12/22 10:32:43;;;;;;;;;;;4.10;100.00;;;;;;6268918;22;19922;-75
2023/12/22 10:35:10;;;;;;;;;;;4.10;100.00;;;;;;6265263;22;19946;-75
2023/12/22 10:37:37;;;;;;;;;;;4.10;100.00;;;;;;6265601;22;19919;-75
2023/12/22 10:40:05;;;;;;;;;;;4.20;100.00;;;;;;6266668;22;20007;-76
2023/12/22 10:42:32;;;;;;;;;;;4.20;100.00;;;;;;6264937;22;19919;-74
2023/12/22 10:45:00;;;;;;;;;;;4.30;100.00;;;;;;6266594;22;19948;-75
2023/12/22 10:47:30;;;;;;;;;;;4.30;100.00;;;;;;6268261;22;19981;-73
2023/12/22 10:50:01;;;;;;;;;;;4.30;99.30;;;;;;6269058;22;20004;-75
2023/12/22 10:52:29;;;;;;;;;;;4.30;98.50;;;;;;6266166;22;19919;-73
2023/12/22 10:54:58;;;;;;;;;;;4.30;98.80;;;;;;6268637;22;19922;-75
2023/12/22 10:57:27;;;;;;;;;;;4.30;96.80;;;;;;6267238;22;19958;-73
2023/12/22 10:59:57;;;;;;;;;;;4.20;99.00;;;;;;6242487;22;19923;-75
2023/12/22 11:02:27;;;;;;;;;;;4.20;98.80;;;;;;6268747;22;20334;-75
2023/12/22 11:04:57;;;;;;;;;;;4.20;97.10;;;;;;6266958;22;19925;-75
2023/12/22 11:07:26;;;;;;;;;;;4.20;97.70;;;;;;6267979;22;19969;-75
2023/12/22 11:09:55;;;;;;;;;;;4.20;98.30;;;;;;6268034;22;19972;-75
2023/12/22 11:12:24;;;;;;;;;;;4.30;98.00;;;;;;6266229;22;19923;-75
2023/12/22 11:14:53;;;;;;;;;;;4.30;97.50;;;;;;6262429;22;19919;-75
2023/12/22 11:17:21;;;;;;;;;;;4.30;98.40;;;;;;6263801;22;19920;-76
2023/12/22 11:19:50;;;;;;;;;;;4.30;100.00;;;;;;6263082;22;20691;-74
2023/12/22 11:22:20;;;;;;;;;;;4.30;99.10;;;;;;6260542;22;19919;-75
2023/12/22 11:24:48;;;;;;;;;;;4.40;97.80;;;;;;6266203;22;20346;-75
2023/12/22 11:27:18;;;;;;;;;;;4.40;96.40;;;;;;6265656;22;19981;-74
2023/12/22 11:29:50;;;;;;;;;;;4.30;98.10;;;;;;6266354;22;19996;-75
2023/12/22 11:32:17;;;;;;;;;;;4.40;98.10;;;;;;6266526;22;20299;-74
2023/12/22 11:34:47;;;;;;;;;;;4.50;95.30;;;;;;6265864;22;20022;-74
2023/12/22 11:37:15;;;;;;;;;;;4.50;95.80;;;;;;6265469;22;19982;-74
2023/12/22 11:39:43;;;;;;;;;;;4.60;95.10;;;;;;6263263;22;19919;-74
2023/12/22 11:42:21;;;;;;;;;;;4.70;93.60;;;;;;6262149;22;19919;-73
2023/12/22 11:44:48;;;;;;;;;;;4.70;93.50;;;;;;6262581;22;19919;-74
2023/12/22 11:47:15;;;;;;;;;;;4.60;93.20;;;;;;6263716;22;19926;-74
2023/12/22 11:49:42;;;;;;;;;;;4.60;91.90;;;;;;6267216;22;19925;-74
2023/12/22 11:52:09;;;;;;;;;;;4.70;91.30;;;;;;6264372;22;19989;-74
2023/12/22 11:54:49;;;;;;;;;;;4.60;90.20;;;;;;6261882;22;19923;-74
2023/12/22 11:57:28;;;;;;;;;;;4.60;92.30;;;;;;6262363;22;19923;-73
2023/12/22 11:59:56;;;;;;;;;;;4.70;92.30;;;;;;6261857;22;19926;-73
2023/12/22 12:02:22;;;;;;;;;;;4.60;90.00;;;;;;6263748;22;20248;-74
2023/12/22 12:04:53;;;;;;;;;;;4.70;91.70;;;;;;6263175;22;19918;-74
2023/12/22 12:07:44;;;;;;;;;;;4.70;90.80;;;;;;6265625;22;19938;-74
2023/12/22 12:10:13;;;;;;;;;;;4.50;91.00;;;;;;6266644;22;20645;-74
2023/12/22 12:12:41;;;;;;;;;;;4.30;90.50;;;;;;6266220;22;19919;-74
2023/12/22 12:15:09;;;;;;;;;;;4.20;90.70;;;;;;6265122;22;19926;-73
2023/12/22 12:17:42;;;;;;;;;;;4.20;91.70;;;;;;6264326;22;19919;-75
2023/12/22 12:20:10;;;;;;;;;;;4.10;90.00;;;;;;6266602;22;19954;-75
2023/12/22 12:22:38;;;;;;;;;;;4.10;91.50;;;;;;6265343;22;19927;-74
2023/12/22 12:25:10;;;;;;;;;;;4.10;90.60;;;;;;6266555;22;20426;-75
2023/12/22 12:28:00;;;;;;;;;;;4.20;90.40;;;;;;6266602;22;20453;-74
2023/12/22 12:30:27;;;;;;;;;;;4.20;89.70;;;;;;6267233;22;20022;-73
2023/12/22 12:32:54;;;;;;;;;;;4.10;91.70;;;;;;6266434;22;19965;-73
2023/12/22 12:35:24;;;;;;;;;;;4.10;92.00;;;;;;6266436;22;19990;-73
2023/12/22 12:37:52;;;;;;;;;;;4.10;94.50;;;;;;6266944;22;19973;-74
2023/12/22 12:40:20;;;;;;;;;;;4.20;90.80;;;;;;6266497;22;19919;-74
2023/12/22 12:42:47;;;;;;;;;;;4.20;91.70;;;;;;6267005;22;19919;-74
2023/12/22 12:45:14;;;;;;;;;;;4.50;93.30;;;;;;6266617;22;19981;-74
2023/12/22 12:47:41;;;;;;;;;;;4.70;88.90;;;;;;6266415;22;19925;-73
2023/12/22 12:50:08;;;;;;;;;;;4.70;90.90;;;;;;6267702;22;19923;-73
2023/12/22 12:52:35;;;;;;;;;;;4.90;88.90;;;;;;6266182;22;19926;-73
2023/12/22 12:55:02;;;;;;;;;;;5.10;92.40;;;;;;6267058;22;19919;-73
2023/12/22 12:57:29;;;;;;;;;;;5.30;90.30;;;;;;6266224;22;19950;-72
2023/12/22 12:59:55;;;;;;;;;;;5.70;90.10;;;;;;6263960;22;19926;-73
2023/12/22 13:02:26;;;;;;;;;;;6.30;86.80;;;;;;6264273;22;19919;-73
2023/12/22 13:04:53;;;;;;;;;;;6.20;86.20;;;;;;6264524;22;20252;-72
2023/12/22 13:07:24;;;;;;;;;;;6.50;84.20;;;;;;6265857;22;19915;-73
2023/12/22 13:09:53;;;;;;;;;;;6.40;84.00;;;;;;6263014;22;20060;-73
2023/12/22 13:12:20;;;;;;;;;;;5.70;85.60;;;;;;6262694;22;19973;-72
2023/12/22 13:14:47;;;;;;;;;;;5.20;87.30;;;;;;6262846;22;19927;-73
2023/12/22 13:17:13;;;;;;;;;;;4.90;91.80;;;;;;6263185;22;20530;-73
2023/12/22 13:19:40;;;;;;;;;;;4.70;91.80;;;;;;6265191;22;19950;-74
2023/12/22 13:22:07;;;;;;;;;;;4.60;93.70;;;;;;6265828;22;20388;-75
2023/12/22 13:24:35;;;;;;;;;;;4.50;92.60;;;;;;6265512;22;20393;-74
2023/12/22 13:27:06;;;;;;;;;;;4.40;93.20;;;;;;6263716;22;19926;-74
2023/12/22 13:29:43;;;;;;;;;;;4.40;92.70;;;;;;6265786;22;19941;-74
2023/12/22 13:32:20;;;;;;;;;;;4.40;94.50;;;;;;6265654;22;20337;-74
2023/12/22 13:34:53;;;;;;;;;;;4.50;94.40;;;;;;6265775;22;19923;-74
2023/12/22 13:37:20;;;;;;;;;;;4.60;95.40;;;;;;6266421;22;19915;-74
2023/12/22 13:39:48;;;;;;;;;;;4.70;94.20;;;;;;6266252;22;19919;-74
2023/12/22 13:42:19;;;;;;;;;;;4.80;93.90;;;;;;6266700;22;19927;-74
2023/12/22 13:44:48;;;;;;;;;;;4.90;94.00;;;;;;6266359;22;19962;-74
2023/12/22 13:47:16;;;;;;;;;;;4.70;93.50;;;;;;6266600;22;20349;-74
2023/12/22 13:49:43;;;;;;;;;;;4.50;95.80;;;;;;6265401;22;19919;-75
2023/12/22 13:52:31;;;;;;;;;;;4.50;96.00;;;;;;6265848;22;19919;-74
2023/12/22 13:55:00;;;;;;;;;;;4.40;97.80;;;;;;6265731;22;19994;-75
2023/12/22 13:57:27;;;;;;;;;;;4.30;98.00;;;;;;6266500;22;20002;-74
2023/12/22 13:59:55;;;;;;;;;;;4.30;100.00;;;;;;6266761;22;19919;-74
2023/12/22 14:02:22;;;;;;;;;;;4.40;97.60;;;;;;6266358;22;19918;-74
2023/12/22 14:04:50;;;;;;;;;;;4.20;95.50;;;;;;6265995;22;19996;-74
2023/12/22 14:07:18;;;;;;;;;;;4.00;98.80;;;;;;6266961;22;19922;-74
2023/12/22 14:09:45;;;;;;;;;;;3.80;99.10;;;;;;6265349;22;19977;-74
2023/12/22 14:12:12;;;;;;;;;;;3.60;100.00;;;;;;6264283;22;19919;-74
2023/12/22 14:14:46;;;;;;;;;;;3.50;100.00;;;;;;6265751;22;19927;-74
2023/12/22 14:17:13;;;;;;;;;;;3.40;100.00;;;;;;6265692;22;19919;-74
2023/12/22 14:19:40;;;;;;;;;;;3.40;100.00;;;;;;6263991;22;19919;-74
2023/12/22 14:22:07;;;;;;;;;;;3.30;100.00;;;;;;6265255;22;19923;-74
2023/12/22 14:24:34;;;;;;;;;;;3.30;100.00;;;;;;6266230;22;19919;-74
2023/12/22 14:27:00;;;;;;;;;;;3.30;100.00;;;;;;6266063;22;19919;-74